sensor_id;sensor_type;location;lat;lon;timestamp;temperature;humidity
3198;DHT22;1611;49.394;11.136;2022-10-31T00:01:30;12.00;75.80
3198;DHT22;1611;49.394;11.136;2022-10-31T00:03:59;12.00;75.80
3198;DHT22;1611;49.394;11.136;2022-10-31T00:06:26;12.00;75.80
3198;DHT22;1611;49.394;11.136;2022-10-31T00:08:55;12.00;75.90
3198;DHT22;1611;49.394;11.136;2022-10-31T00:11:22;12.00;75.80
3198;DHT22;1611;49.394;11.136;2022-10-31T00:13:49;12.00;75.90
3198;DHT22;1611;49.394;11.136;2022-10-31T00:16:17;12.10;76.80
3198;DHT22;1611;49.394;11.136;2022-10-31T00:18:48;12.10;77.40
3198;DHT22;1611;49.394;11.136;2022-10-31T00:21:16;12.10;77.10
3198;DHT22;1611;49.394;11.136;2022-10-31T00:23:44;12.10;76.60
3198;DHT22;1611;49.394;11.136;2022-10-31T00:26:10;12.00;76.30
3198;DHT22;1611;49.394;11.136;2022-10-31T00:28:38;12.00;76.50
3198;DHT22;1611;49.394;11.136;2022-10-31T00:31:06;12.00;75.70
3198;DHT22;1611;49.394;11.136;2022-10-31T00:33:35;12.00;75.70
3198;DHT22;1611;49.394;11.136;2022-10-31T00:36:04;12.00;76.00
3198;DHT22;1611;49.394;11.136;2022-10-31T00:38:32;12.00;76.10
3198;DHT22;1611;49.394;11.136;2022-10-31T00:40:59;12.00;76.40
3198;DHT22;1611;49.394;11.136;2022-10-31T00:43:26;11.90;76.10
3198;DHT22;1611;49.394;11.136;2022-10-31T00:45:53;11.90;76.20
3198;DHT22;1611;49.394;11.136;2022-10-31T00:48:20;11.80;76.40
3198;DHT22;1611;49.394;11.136;2022-10-31T00:50:46;11.80;76.00
3198;DHT22;1611;49.394;11.136;2022-10-31T00:53:13;11.80;76.30
3198;DHT22;1611;49.394;11.136;2022-10-31T00:55:41;11.80;76.40
3198;DHT22;1611;49.394;11.136;2022-10-31T00:58:08;11.80;76.90
3198;DHT22;1611;49.394;11.136;2022-10-31T01:00:35;11.80;77.20
3198;DHT22;1611;49.394;11.136;2022-10-31T01:03:02;11.70;77.70
3198;DHT22;1611;49.394;11.136;2022-10-31T01:05:28;11.80;77.80
3198;DHT22;1611;49.394;11.136;2022-10-31T01:07:55;11.70;77.90
3198;DHT22;1611;49.394;11.136;2022-10-31T01:10:22;11.70;77.70
3198;DHT22;1611;49.394;11.136;2022-10-31T01:12:50;11.70;77.90
3198;DHT22;1611;49.394;11.136;2022-10-31T01:15:19;11.70;77.80
3198;DHT22;1611;49.394;11.136;2022-10-31T01:17:46;11.70;78.50
3198;DHT22;1611;49.394;11.136;2022-10-31T01:20:14;11.70;78.70
3198;DHT22;1611;49.394;11.136;2022-10-31T01:22:41;11.70;79.00
3198;DHT22;1611;49.394;11.136;2022-10-31T01:25:09;11.70;79.20
3198;DHT22;1611;49.394;11.136;2022-10-31T01:27:36;11.80;79.00
3198;DHT22;1611;49.394;11.136;2022-10-31T01:30:06;11.80;78.80
3198;DHT22;1611;49.394;11.136;2022-10-31T01:32:32;11.70;78.00
3198;DHT22;1611;49.394;11.136;2022-10-31T01:34:59;11.70;77.40
3198;DHT22;1611;49.394;11.136;2022-10-31T01:37:27;11.80;77.40
3198;DHT22;1611;49.394;11.136;2022-10-31T01:39:54;11.80;77.50
3198;DHT22;1611;49.394;11.136;2022-10-31T01:42:22;11.70;77.80
3198;DHT22;1611;49.394;11.136;2022-10-31T01:44:56;11.80;78.10
3198;DHT22;1611;49.394;11.136;2022-10-31T01:47:33;11.80;78.40
3198;DHT22;1611;49.394;11.136;2022-10-31T01:50:06;11.80;78.50
3198;DHT22;1611;49.394;11.136;2022-10-31T01:52:38;11.80;78.10
3198;DHT22;1611;49.394;11.136;2022-10-31T01:55:09;11.70;77.60
3198;DHT22;1611;49.394;11.136;2022-10-31T01:57:38;11.60;75.90
3198;DHT22;1611;49.394;11.136;2022-10-31T02:00:09;11.70;74.80
3198;DHT22;1611;49.394;11.136;2022-10-31T02:02:38;11.50;74.30
3198;DHT22;1611;49.394;11.136;2022-10-31T02:05:08;11.40;74.80
3198;DHT22;1611;49.394;11.136;2022-10-31T02:07:39;11.40;74.70
3198;DHT22;1611;49.394;11.136;2022-10-31T02:10:07;11.40;74.90
3198;DHT22;1611;49.394;11.136;2022-10-31T02:12:34;11.40;75.00
3198;DHT22;1611;49.394;11.136;2022-10-31T02:15:03;11.30;75.00
3198;DHT22;1611;49.394;11.136;2022-10-31T02:17:30;11.30;75.10
3198;DHT22;1611;49.394;11.136;2022-10-31T02:20:05;11.30;75.50
3198;DHT22;1611;49.394;11.136;2022-10-31T02:22:40;11.30;75.50
3198;DHT22;1611;49.394;11.136;2022-10-31T02:25:24;11.30;75.80
3198;DHT22;1611;49.394;11.136;2022-10-31T02:28:12;11.30;76.10
3198;DHT22;1611;49.394;11.136;2022-10-31T02:30:59;11.40;76.60
3198;DHT22;1611;49.394;11.136;2022-10-31T02:33:31;11.40;76.50
3198;DHT22;1611;49.394;11.136;2022-10-31T02:36:05;11.40;76.50
3198;DHT22;1611;49.394;11.136;2022-10-31T02:38:43;11.40;76.30
3198;DHT22;1611;49.394;11.136;2022-10-31T02:41:19;11.40;75.90
3198;DHT22;1611;49.394;11.136;2022-10-31T02:43:58;11.40;75.60
3198;DHT22;1611;49.394;11.136;2022-10-31T02:46:33;11.30;75.40
3198;DHT22;1611;49.394;11.136;2022-10-31T02:49:05;11.30;74.80
3198;DHT22;1611;49.394;11.136;2022-10-31T02:51:34;11.30;74.50
3198;DHT22;1611;49.394;11.136;2022-10-31T02:54:01;11.20;74.70
3198;DHT22;1611;49.394;11.136;2022-10-31T02:56:27;11.20;74.30
3198;DHT22;1611;49.394;11.136;2022-10-31T02:58:57;11.20;74.00
3198;DHT22;1611;49.394;11.136;2022-10-31T03:01:44;11.20;73.90
3198;DHT22;1611;49.394;11.136;2022-10-31T03:04:24;11.10;74.10
3198;DHT22;1611;49.394;11.136;2022-10-31T03:06:57;11.10;74.80
3198;DHT22;1611;49.394;11.136;2022-10-31T03:09:33;11.00;75.20
3198;DHT22;1611;49.394;11.136;2022-10-31T03:12:06;11.10;75.20
3198;DHT22;1611;49.394;11.136;2022-10-31T03:14:39;11.00;75.10
3198;DHT22;1611;49.394;11.136;2022-10-31T03:17:14;11.00;74.90
3198;DHT22;1611;49.394;11.136;2022-10-31T03:19:48;10.90;74.80
3198;DHT22;1611;49.394;11.136;2022-10-31T03:22:17;10.80;73.90
3198;DHT22;1611;49.394;11.136;2022-10-31T03:24:47;10.80;74.20
3198;DHT22;1611;49.394;11.136;2022-10-31T03:27:16;10.70;74.30
3198;DHT22;1611;49.394;11.136;2022-10-31T03:29:45;10.70;74.20
3198;DHT22;1611;49.394;11.136;2022-10-31T03:32:18;10.70;73.90
3198;DHT22;1611;49.394;11.136;2022-10-31T03:34:47;10.60;74.00
3198;DHT22;1611;49.394;11.136;2022-10-31T03:37:17;10.60;73.90
3198;DHT22;1611;49.394;11.136;2022-10-31T03:39:47;10.60;74.60
3198;DHT22;1611;49.394;11.136;2022-10-31T03:42:24;10.60;75.10
3198;DHT22;1611;49.394;11.136;2022-10-31T03:44:55;10.60;75.10
3198;DHT22;1611;49.394;11.136;2022-10-31T03:47:22;10.60;74.10
3198;DHT22;1611;49.394;11.136;2022-10-31T03:49:49;10.50;74.10
3198;DHT22;1611;49.394;11.136;2022-10-31T03:52:22;10.50;74.10
3198;DHT22;1611;49.394;11.136;2022-10-31T03:54:54;10.50;74.30
3198;DHT22;1611;49.394;11.136;2022-10-31T03:57:26;10.50;74.40
3198;DHT22;1611;49.394;11.136;2022-10-31T03:59:55;10.40;74.40
3198;DHT22;1611;49.394;11.136;2022-10-31T04:02:29;10.40;74.60
3198;DHT22;1611;49.394;11.136;2022-10-31T04:04:57;10.40;74.90
3198;DHT22;1611;49.394;11.136;2022-10-31T04:07:28;10.40;75.20
3198;DHT22;1611;49.394;11.136;2022-10-31T04:09:57;10.40;75.40
3198;DHT22;1611;49.394;11.136;2022-10-31T04:12:29;10.40;75.30
3198;DHT22;1611;49.394;11.136;2022-10-31T04:14:57;10.50;75.50
3198;DHT22;1611;49.394;11.136;2022-10-31T04:17:27;10.50;76.20
3198;DHT22;1611;49.394;11.136;2022-10-31T04:19:58;10.60;76.40
3198;DHT22;1611;49.394;11.136;2022-10-31T04:22:25;10.60;76.00
3198;DHT22;1611;49.394;11.136;2022-10-31T04:24:52;10.50;76.00
3198;DHT22;1611;49.394;11.136;2022-10-31T04:27:19;10.50;75.60
3198;DHT22;1611;49.394;11.136;2022-10-31T04:29:47;10.50;74.90
3198;DHT22;1611;49.394;11.136;2022-10-31T04:32:14;10.40;74.40
3198;DHT22;1611;49.394;11.136;2022-10-31T04:34:41;10.40;74.50
3198;DHT22;1611;49.394;11.136;2022-10-31T04:37:07;10.30;74.90
3198;DHT22;1611;49.394;11.136;2022-10-31T04:39:34;10.30;75.40
3198;DHT22;1611;49.394;11.136;2022-10-31T04:42:01;10.30;75.60
3198;DHT22;1611;49.394;11.136;2022-10-31T04:44:28;10.30;75.70
3198;DHT22;1611;49.394;11.136;2022-10-31T04:46:56;10.30;75.70
3198;DHT22;1611;49.394;11.136;2022-10-31T04:49:22;10.30;75.60
3198;DHT22;1611;49.394;11.136;2022-10-31T04:51:49;10.30;75.20
3198;DHT22;1611;49.394;11.136;2022-10-31T04:54:16;10.40;75.20
3198;DHT22;1611;49.394;11.136;2022-10-31T04:56:43;10.40;75.10
3198;DHT22;1611;49.394;11.136;2022-10-31T04:59:09;10.40;74.90
3198;DHT22;1611;49.394;11.136;2022-10-31T05:01:36;10.40;74.50
3198;DHT22;1611;49.394;11.136;2022-10-31T05:04:04;10.30;74.70
3198;DHT22;1611;49.394;11.136;2022-10-31T05:06:31;10.30;75.00
3198;DHT22;1611;49.394;11.136;2022-10-31T05:08:58;10.30;75.00
3198;DHT22;1611;49.394;11.136;2022-10-31T05:11:25;10.30;75.20
3198;DHT22;1611;49.394;11.136;2022-10-31T05:13:51;10.30;75.20
3198;DHT22;1611;49.394;11.136;2022-10-31T05:16:18;10.30;75.00
3198;DHT22;1611;49.394;11.136;2022-10-31T05:18:45;10.30;75.10
3198;DHT22;1611;49.394;11.136;2022-10-31T05:21:13;10.20;74.70
3198;DHT22;1611;49.394;11.136;2022-10-31T05:23:40;10.30;74.70
3198;DHT22;1611;49.394;11.136;2022-10-31T05:26:06;10.20;74.40
3198;DHT22;1611;49.394;11.136;2022-10-31T05:28:33;10.30;74.10
3198;DHT22;1611;49.394;11.136;2022-10-31T05:31:00;10.20;74.10
3198;DHT22;1611;49.394;11.136;2022-10-31T05:33:27;10.20;73.90
3198;DHT22;1611;49.394;11.136;2022-10-31T05:35:54;10.20;73.80
3198;DHT22;1611;49.394;11.136;2022-10-31T05:38:22;10.10;73.70
3198;DHT22;1611;49.394;11.136;2022-10-31T05:40:48;10.10;73.70
3198;DHT22;1611;49.394;11.136;2022-10-31T05:43:15;10.10;74.20
3198;DHT22;1611;49.394;11.136;2022-10-31T05:45:42;10.10;74.10
3198;DHT22;1611;49.394;11.136;2022-10-31T05:48:09;10.10;74.30
3198;DHT22;1611;49.394;11.136;2022-10-31T05:50:35;10.10;74.70
3198;DHT22;1611;49.394;11.136;2022-10-31T05:53:04;10.10;74.90
3198;DHT22;1611;49.394;11.136;2022-10-31T05:55:32;10.10;74.70
3198;DHT22;1611;49.394;11.136;2022-10-31T05:57:59;10.10;74.70
3198;DHT22;1611;49.394;11.136;2022-10-31T06:00:27;10.10;74.50
3198;DHT22;1611;49.394;11.136;2022-10-31T06:02:58;10.00;74.60
3198;DHT22;1611;49.394;11.136;2022-10-31T06:05:25;10.10;75.10
3198;DHT22;1611;49.394;11.136;2022-10-31T06:07:52;10.00;75.50
3198;DHT22;1611;49.394;11.136;2022-10-31T06:10:19;10.00;75.70
3198;DHT22;1611;49.394;11.136;2022-10-31T06:12:48;10.00;76.00
3198;DHT22;1611;49.394;11.136;2022-10-31T06:15:15;10.10;76.10
3198;DHT22;1611;49.394;11.136;2022-10-31T06:17:42;10.10;76.10
3198;DHT22;1611;49.394;11.136;2022-10-31T06:20:10;10.10;75.80
3198;DHT22;1611;49.394;11.136;2022-10-31T06:22:36;10.10;75.50
3198;DHT22;1611;49.394;11.136;2022-10-31T06:25:04;10.10;74.90
3198;DHT22;1611;49.394;11.136;2022-10-31T06:27:30;10.10;73.90
3198;DHT22;1611;49.394;11.136;2022-10-31T06:29:59;10.00;73.70
3198;DHT22;1611;49.394;11.136;2022-10-31T06:32:25;10.10;73.80
3198;DHT22;1611;49.394;11.136;2022-10-31T06:34:52;10.10;73.90
3198;DHT22;1611;49.394;11.136;2022-10-31T06:37:19;10.10;74.00
3198;DHT22;1611;49.394;11.136;2022-10-31T06:39:46;10.10;73.80
3198;DHT22;1611;49.394;11.136;2022-10-31T06:42:12;10.10;73.50
3198;DHT22;1611;49.394;11.136;2022-10-31T06:44:41;10.10;73.40
3198;DHT22;1611;49.394;11.136;2022-10-31T06:47:09;10.20;73.00
3198;DHT22;1611;49.394;11.136;2022-10-31T06:49:36;10.20;72.90
3198;DHT22;1611;49.394;11.136;2022-10-31T06:52:03;10.20;73.20
3198;DHT22;1611;49.394;11.136;2022-10-31T06:54:30;10.20;73.40
3198;DHT22;1611;49.394;11.136;2022-10-31T06:56:56;10.30;73.30
3198;DHT22;1611;49.394;11.136;2022-10-31T06:59:23;10.20;73.40
3198;DHT22;1611;49.394;11.136;2022-10-31T07:01:50;10.30;73.60
3198;DHT22;1611;49.394;11.136;2022-10-31T07:04:18;10.30;73.20
3198;DHT22;1611;49.394;11.136;2022-10-31T07:06:45;10.30;73.20
3198;DHT22;1611;49.394;11.136;2022-10-31T07:09:12;10.30;73.10
3198;DHT22;1611;49.394;11.136;2022-10-31T07:11:38;10.40;72.40
3198;DHT22;1611;49.394;11.136;2022-10-31T07:14:05;10.40;72.40
3198;DHT22;1611;49.394;11.136;2022-10-31T07:16:32;10.30;73.10
3198;DHT22;1611;49.394;11.136;2022-10-31T07:18:59;10.40;73.80
3198;DHT22;1611;49.394;11.136;2022-10-31T07:21:27;10.40;73.80
3198;DHT22;1611;49.394;11.136;2022-10-31T07:23:54;10.40;74.00
3198;DHT22;1611;49.394;11.136;2022-10-31T07:26:20;10.50;74.30
3198;DHT22;1611;49.394;11.136;2022-10-31T07:28:47;10.60;74.30
3198;DHT22;1611;49.394;11.136;2022-10-31T07:31:14;10.60;74.20
3198;DHT22;1611;49.394;11.136;2022-10-31T07:33:41;10.70;74.50
3198;DHT22;1611;49.394;11.136;2022-10-31T07:36:08;10.80;74.90
3198;DHT22;1611;49.394;11.136;2022-10-31T07:38:36;10.90;75.30
3198;DHT22;1611;49.394;11.136;2022-10-31T07:41:03;11.00;75.10
3198;DHT22;1611;49.394;11.136;2022-10-31T07:43:30;11.10;75.10
3198;DHT22;1611;49.394;11.136;2022-10-31T07:45:57;11.20;75.10
3198;DHT22;1611;49.394;11.136;2022-10-31T07:48:24;11.30;75.60
3198;DHT22;1611;49.394;11.136;2022-10-31T07:50:50;11.30;75.70
3198;DHT22;1611;49.394;11.136;2022-10-31T07:53:17;11.40;75.50
3198;DHT22;1611;49.394;11.136;2022-10-31T07:55:45;11.40;75.40
3198;DHT22;1611;49.394;11.136;2022-10-31T07:58:13;11.50;75.40
3198;DHT22;1611;49.394;11.136;2022-10-31T08:00:41;11.60;75.00
3198;DHT22;1611;49.394;11.136;2022-10-31T08:03:10;11.60;74.70
3198;DHT22;1611;49.394;11.136;2022-10-31T08:05:37;11.70;74.70
3198;DHT22;1611;49.394;11.136;2022-10-31T08:08:06;11.80;74.60
3198;DHT22;1611;49.394;11.136;2022-10-31T08:10:33;11.90;74.80
3198;DHT22;1611;49.394;11.136;2022-10-31T08:13:03;12.00;74.60
3198;DHT22;1611;49.394;11.136;2022-10-31T08:15:31;12.10;74.60
3198;DHT22;1611;49.394;11.136;2022-10-31T08:17:59;12.10;74.70
3198;DHT22;1611;49.394;11.136;2022-10-31T08:20:27;12.30;77.60
3198;DHT22;1611;49.394;11.136;2022-10-31T08:22:55;12.40;77.70
3198;DHT22;1611;49.394;11.136;2022-10-31T08:25:22;12.50;78.30
3198;DHT22;1611;49.394;11.136;2022-10-31T08:27:50;12.60;77.60
3198;DHT22;1611;49.394;11.136;2022-10-31T08:30:20;12.60;77.30
3198;DHT22;1611;49.394;11.136;2022-10-31T08:32:47;12.70;77.10
3198;DHT22;1611;49.394;11.136;2022-10-31T08:35:14;12.80;76.80
3198;DHT22;1611;49.394;11.136;2022-10-31T08:37:41;12.80;76.70
3198;DHT22;1611;49.394;11.136;2022-10-31T08:40:09;12.90;76.80
3198;DHT22;1611;49.394;11.136;2022-10-31T08:42:36;13.00;76.90
3198;DHT22;1611;49.394;11.136;2022-10-31T08:45:03;13.10;76.60
3198;DHT22;1611;49.394;11.136;2022-10-31T08:47:31;13.20;76.30
3198;DHT22;1611;49.394;11.136;2022-10-31T08:49:58;13.40;76.10
3198;DHT22;1611;49.394;11.136;2022-10-31T08:52:25;13.50;76.20
3198;DHT22;1611;49.394;11.136;2022-10-31T08:54:52;13.60;76.20
3198;DHT22;1611;49.394;11.136;2022-10-31T08:57:19;13.70;76.20
3198;DHT22;1611;49.394;11.136;2022-10-31T08:59:45;13.90;76.10
3198;DHT22;1611;49.394;11.136;2022-10-31T09:02:12;14.10;75.90
3198;DHT22;1611;49.394;11.136;2022-10-31T09:04:40;14.20;75.60
3198;DHT22;1611;49.394;11.136;2022-10-31T09:07:07;14.30;75.70
3198;DHT22;1611;49.394;11.136;2022-10-31T09:09:34;14.60;75.20
3198;DHT22;1611;49.394;11.136;2022-10-31T09:12:00;14.80;75.30
3198;DHT22;1611;49.394;11.136;2022-10-31T09:14:27;15.20;74.40
3198;DHT22;1611;49.394;11.136;2022-10-31T09:16:54;15.40;72.50
3198;DHT22;1611;49.394;11.136;2022-10-31T09:19:21;15.70;70.50
3198;DHT22;1611;49.394;11.136;2022-10-31T09:21:51;16.20;69.50
3198;DHT22;1611;49.394;11.136;2022-10-31T09:24:18;16.70;66.30
3198;DHT22;1611;49.394;11.136;2022-10-31T09:26:45;17.10;63.30
3198;DHT22;1611;49.394;11.136;2022-10-31T09:29:12;17.60;61.40
3198;DHT22;1611;49.394;11.136;2022-10-31T09:31:39;18.20;57.60
3198;DHT22;1611;49.394;11.136;2022-10-31T09:34:05;18.80;55.00
3198;DHT22;1611;49.394;11.136;2022-10-31T09:36:32;19.40;52.80
3198;DHT22;1611;49.394;11.136;2022-10-31T09:39:00;20.10;50.00
3198;DHT22;1611;49.394;11.136;2022-10-31T09:41:32;20.80;46.60
3198;DHT22;1611;49.394;11.136;2022-10-31T09:44:07;21.40;44.00
3198;DHT22;1611;49.394;11.136;2022-10-31T09:46:46;22.10;40.70
3198;DHT22;1611;49.394;11.136;2022-10-31T09:49:32;22.60;38.20
3198;DHT22;1611;49.394;11.136;2022-10-31T09:52:04;22.60;37.80
3198;DHT22;1611;49.394;11.136;2022-10-31T09:54:37;22.30;38.10
3198;DHT22;1611;49.394;11.136;2022-10-31T09:57:12;21.90;39.40
3198;DHT22;1611;49.394;11.136;2022-10-31T09:59:41;21.40;40.70
3198;DHT22;1611;49.394;11.136;2022-10-31T10:02:15;21.00;42.10
3198;DHT22;1611;49.394;11.136;2022-10-31T10:04:46;20.70;43.70
3198;DHT22;1611;49.394;11.136;2022-10-31T10:07:21;20.20;45.00
3198;DHT22;1611;49.394;11.136;2022-10-31T10:09:50;19.80;46.30
3198;DHT22;1611;49.394;11.136;2022-10-31T10:12:33;19.60;47.10
3198;DHT22;1611;49.394;11.136;2022-10-31T10:15:19;19.50;48.10
3198;DHT22;1611;49.394;11.136;2022-10-31T10:17:57;19.30;48.60
3198;DHT22;1611;49.394;11.136;2022-10-31T10:20:31;19.40;48.50
3198;DHT22;1611;49.394;11.136;2022-10-31T10:23:23;19.40;49.00
3198;DHT22;1611;49.394;11.136;2022-10-31T10:26:02;19.30;49.00
3198;DHT22;1611;49.394;11.136;2022-10-31T10:28:35;19.20;49.30
3198;DHT22;1611;49.394;11.136;2022-10-31T10:31:08;19.20;50.10
3198;DHT22;1611;49.394;11.136;2022-10-31T10:33:39;19.10;51.10
3198;DHT22;1611;49.394;11.136;2022-10-31T10:36:12;19.20;50.50
3198;DHT22;1611;49.394;11.136;2022-10-31T10:38:48;19.20;50.20
3198;DHT22;1611;49.394;11.136;2022-10-31T10:41:19;19.00;50.50
3198;DHT22;1611;49.394;11.136;2022-10-31T10:43:49;19.10;50.90
3198;DHT22;1611;49.394;11.136;2022-10-31T10:46:18;19.20;51.10
3198;DHT22;1611;49.394;11.136;2022-10-31T10:49:10;19.30;50.90
3198;DHT22;1611;49.394;11.136;2022-10-31T10:51:44;19.40;51.30
3198;DHT22;1611;49.394;11.136;2022-10-31T10:57:11;19.40;51.10
3198;DHT22;1611;49.394;11.136;2022-10-31T10:59:43;19.40;50.20
3198;DHT22;1611;49.394;11.136;2022-10-31T11:02:19;19.50;50.80
3198;DHT22;1611;49.394;11.136;2022-10-31T11:04:50;19.50;51.30
3198;DHT22;1611;49.394;11.136;2022-10-31T11:07:18;19.70;51.20
3198;DHT22;1611;49.394;11.136;2022-10-31T11:09:45;19.80;49.00
3198;DHT22;1611;49.394;11.136;2022-10-31T11:12:20;19.80;50.10
3198;DHT22;1611;49.394;11.136;2022-10-31T11:14:50;19.90;49.80
3198;DHT22;1611;49.394;11.136;2022-10-31T11:17:33;20.00;48.80
3198;DHT22;1611;49.394;11.136;2022-10-31T11:20:02;20.20;46.60
3198;DHT22;1611;49.394;11.136;2022-10-31T11:22:30;20.40;47.20
3198;DHT22;1611;49.394;11.136;2022-10-31T11:24:57;20.70;47.00
3198;DHT22;1611;49.394;11.136;2022-10-31T11:27:26;21.00;46.40
3198;DHT22;1611;49.394;11.136;2022-10-31T11:30:04;21.30;45.70
3198;DHT22;1611;49.394;11.136;2022-10-31T11:32:31;21.50;45.10
3198;DHT22;1611;49.394;11.136;2022-10-31T11:35:00;21.50;44.50
3198;DHT22;1611;49.394;11.136;2022-10-31T11:37:29;21.50;44.10
3198;DHT22;1611;49.394;11.136;2022-10-31T11:40:03;21.50;43.20
3198;DHT22;1611;49.394;11.136;2022-10-31T11:42:36;21.60;43.10
3198;DHT22;1611;49.394;11.136;2022-10-31T11:45:15;21.70;43.00
3198;DHT22;1611;49.394;11.136;2022-10-31T11:47:44;21.60;42.20
3198;DHT22;1611;49.394;11.136;2022-10-31T11:50:20;21.70;42.80
3198;DHT22;1611;49.394;11.136;2022-10-31T11:52:48;21.80;43.40
3198;DHT22;1611;49.394;11.136;2022-10-31T11:55:17;21.90;43.70
3198;DHT22;1611;49.394;11.136;2022-10-31T11:57:56;21.90;42.30
3198;DHT22;1611;49.394;11.136;2022-10-31T12:00:25;21.80;41.50
3198;DHT22;1611;49.394;11.136;2022-10-31T12:03:06;21.90;41.50
3198;DHT22;1611;49.394;11.136;2022-10-31T12:05:38;21.90;41.30
3198;DHT22;1611;49.394;11.136;2022-10-31T12:08:07;21.90;41.40
3198;DHT22;1611;49.394;11.136;2022-10-31T12:10:39;22.10;40.70
3198;DHT22;1611;49.394;11.136;2022-10-31T12:13:20;22.20;40.10
3198;DHT22;1611;49.394;11.136;2022-10-31T12:15:53;22.30;40.40
3198;DHT22;1611;49.394;11.136;2022-10-31T12:18:46;22.40;40.40
3198;DHT22;1611;49.394;11.136;2022-10-31T12:21:24;22.60;40.60
3198;DHT22;1611;49.394;11.136;2022-10-31T12:24:01;22.70;40.00
3198;DHT22;1611;49.394;11.136;2022-10-31T12:26:34;22.80;39.80
3198;DHT22;1611;49.394;11.136;2022-10-31T12:29:24;22.80;39.50
3198;DHT22;1611;49.394;11.136;2022-10-31T12:32:01;22.90;41.20
3198;DHT22;1611;49.394;11.136;2022-10-31T12:34:42;23.10;41.90
3198;DHT22;1611;49.394;11.136;2022-10-31T12:37:20;23.30;40.00
3198;DHT22;1611;49.394;11.136;2022-10-31T12:40:02;23.40;39.60
3198;DHT22;1611;49.394;11.136;2022-10-31T12:42:43;23.40;39.40
3198;DHT22;1611;49.394;11.136;2022-10-31T12:45:49;23.40;39.10
3198;DHT22;1611;49.394;11.136;2022-10-31T12:48:45;23.70;37.70
3198;DHT22;1611;49.394;11.136;2022-10-31T12:51:21;23.90;37.90
3198;DHT22;1611;49.394;11.136;2022-10-31T12:54:03;24.10;38.40
3198;DHT22;1611;49.394;11.136;2022-10-31T12:56:40;24.20;35.40
3198;DHT22;1611;49.394;11.136;2022-10-31T12:59:13;24.20;36.50
3198;DHT22;1611;49.394;11.136;2022-10-31T13:01:49;24.10;37.00
3198;DHT22;1611;49.394;11.136;2022-10-31T13:04:24;24.00;37.20
3198;DHT22;1611;49.394;11.136;2022-10-31T13:06:59;23.90;37.70
3198;DHT22;1611;49.394;11.136;2022-10-31T13:09:32;23.70;38.00
3198;DHT22;1611;49.394;11.136;2022-10-31T13:12:04;23.40;39.00
3198;DHT22;1611;49.394;11.136;2022-10-31T13:14:38;23.10;39.70
3198;DHT22;1611;49.394;11.136;2022-10-31T13:17:08;22.90;40.90
3198;DHT22;1611;49.394;11.136;2022-10-31T13:19:41;22.80;41.20
3198;DHT22;1611;49.394;11.136;2022-10-31T13:22:12;22.60;42.30
3198;DHT22;1611;49.394;11.136;2022-10-31T13:24:44;22.40;43.20
3198;DHT22;1611;49.394;11.136;2022-10-31T13:27:15;22.20;44.50
3198;DHT22;1611;49.394;11.136;2022-10-31T13:29:55;22.10;45.20
3198;DHT22;1611;49.394;11.136;2022-10-31T13:32:26;21.90;45.30
3198;DHT22;1611;49.394;11.136;2022-10-31T13:34:56;21.80;45.80
3198;DHT22;1611;49.394;11.136;2022-10-31T13:37:30;21.80;46.00
3198;DHT22;1611;49.394;11.136;2022-10-31T13:40:08;21.70;46.80
3198;DHT22;1611;49.394;11.136;2022-10-31T13:42:51;21.60;47.40
3198;DHT22;1611;49.394;11.136;2022-10-31T13:45:21;21.50;47.80
3198;DHT22;1611;49.394;11.136;2022-10-31T13:48:00;21.40;48.20
3198;DHT22;1611;49.394;11.136;2022-10-31T13:50:29;21.40;48.50
3198;DHT22;1611;49.394;11.136;2022-10-31T13:53:13;21.40;48.50
3198;DHT22;1611;49.394;11.136;2022-10-31T13:55:42;21.50;48.40
3198;DHT22;1611;49.394;11.136;2022-10-31T13:58:22;21.60;49.00
3198;DHT22;1611;49.394;11.136;2022-10-31T14:01:14;21.70;48.30
3198;DHT22;1611;49.394;11.136;2022-10-31T14:03:45;21.80;48.20
3198;DHT22;1611;49.394;11.136;2022-10-31T14:06:14;21.70;48.10
3198;DHT22;1611;49.394;11.136;2022-10-31T14:08:48;21.80;48.10
3198;DHT22;1611;49.394;11.136;2022-10-31T14:11:22;21.70;48.30
3198;DHT22;1611;49.394;11.136;2022-10-31T14:13:50;21.70;48.20
3198;DHT22;1611;49.394;11.136;2022-10-31T14:16:19;21.60;48.70
3198;DHT22;1611;49.394;11.136;2022-10-31T14:18:51;21.40;49.60
3198;DHT22;1611;49.394;11.136;2022-10-31T14:21:28;21.30;50.60
3198;DHT22;1611;49.394;11.136;2022-10-31T14:23:56;21.10;51.30
3198;DHT22;1611;49.394;11.136;2022-10-31T14:26:35;21.00;51.70
3198;DHT22;1611;49.394;11.136;2022-10-31T14:29:23;20.80;52.40
3198;DHT22;1611;49.394;11.136;2022-10-31T14:31:56;20.70;53.10
3198;DHT22;1611;49.394;11.136;2022-10-31T14:34:27;20.60;53.80
3198;DHT22;1611;49.394;11.136;2022-10-31T14:37:30;20.60;54.70
3198;DHT22;1611;49.394;11.136;2022-10-31T14:40:24;20.40;55.10
3198;DHT22;1611;49.394;11.136;2022-10-31T14:43:16;20.30;56.00
3198;DHT22;1611;49.394;11.136;2022-10-31T14:45:52;20.20;56.00
3198;DHT22;1611;49.394;11.136;2022-10-31T14:48:39;20.00;56.60
3198;DHT22;1611;49.394;11.136;2022-10-31T14:51:14;19.90;56.50
3198;DHT22;1611;49.394;11.136;2022-10-31T14:53:46;19.80;56.30
3198;DHT22;1611;49.394;11.136;2022-10-31T14:56:19;19.70;56.00
3198;DHT22;1611;49.394;11.136;2022-10-31T14:58:47;19.60;55.70
3198;DHT22;1611;49.394;11.136;2022-10-31T15:01:23;19.50;55.40
3198;DHT22;1611;49.394;11.136;2022-10-31T15:03:51;19.40;54.90
3198;DHT22;1611;49.394;11.136;2022-10-31T15:06:21;19.30;54.50
3198;DHT22;1611;49.394;11.136;2022-10-31T15:08:50;19.20;54.10
3198;DHT22;1611;49.394;11.136;2022-10-31T15:11:19;19.10;54.00
3198;DHT22;1611;49.394;11.136;2022-10-31T15:13:47;19.00;54.60
3198;DHT22;1611;49.394;11.136;2022-10-31T15:16:18;18.90;54.60
3198;DHT22;1611;49.394;11.136;2022-10-31T15:18:48;18.80;54.50
3198;DHT22;1611;49.394;11.136;2022-10-31T15:21:16;18.70;54.80
3198;DHT22;1611;49.394;11.136;2022-10-31T15:23:45;18.60;54.90
3198;DHT22;1611;49.394;11.136;2022-10-31T15:26:17;18.50;55.60
3198;DHT22;1611;49.394;11.136;2022-10-31T15:28:44;18.40;56.00
3198;DHT22;1611;49.394;11.136;2022-10-31T15:31:15;18.40;56.30
3198;DHT22;1611;49.394;11.136;2022-10-31T15:33:44;18.30;56.10
3198;DHT22;1611;49.394;11.136;2022-10-31T15:36:19;18.20;56.20
3198;DHT22;1611;49.394;11.136;2022-10-31T15:38:48;18.20;56.00
3198;DHT22;1611;49.394;11.136;2022-10-31T15:41:23;18.10;56.60
3198;DHT22;1611;49.394;11.136;2022-10-31T15:43:51;18.00;56.70
3198;DHT22;1611;49.394;11.136;2022-10-31T15:46:18;17.90;57.20
3198;DHT22;1611;49.394;11.136;2022-10-31T15:48:46;17.70;58.00
3198;DHT22;1611;49.394;11.136;2022-10-31T15:51:13;17.70;58.50
3198;DHT22;1611;49.394;11.136;2022-10-31T15:53:44;17.60;58.70
3198;DHT22;1611;49.394;11.136;2022-10-31T15:56:19;17.60;59.10
3198;DHT22;1611;49.394;11.136;2022-10-31T15:58:48;17.50;59.60
3198;DHT22;1611;49.394;11.136;2022-10-31T16:01:21;17.40;59.80
3198;DHT22;1611;49.394;11.136;2022-10-31T16:03:59;17.40;60.10
3198;DHT22;1611;49.394;11.136;2022-10-31T16:06:26;17.40;60.40
3198;DHT22;1611;49.394;11.136;2022-10-31T16:08:53;17.20;60.80
3198;DHT22;1611;49.394;11.136;2022-10-31T16:11:24;17.20;61.20